Time;durP1;ratioP1;P1;durP2;ratioP2;P2;SDS_P1;SDS_P2;PMS_P1;PMS_P2;Temp;Humidity;BMP_temperature;BMP_pressure;BME280_temperature;BME280_humidity;BME280_pressure;Samples;Min_cycle;Max_cycle;Signal;HPM_P1;HPM_P2
2023/05/21 00:01:01;;;;;;;14.10;12.80;;;15.90;99.90;;;;;;5026160;28;20954;-70
2023/05/21 00:03:29;;;;;;;14.63;13.33;;;15.90;99.90;;;;;;5052061;28;20430;-71
2023/05/21 00:05:55;;;;;;;14.83;13.43;;;15.90;99.90;;;;;;5046329;28;20431;-71
2023/05/21 00:08:20;;;;;;;14.87;13.47;;;15.90;99.90;;;;;;5041369;28;20431;-71
2023/05/21 00:10:46;;;;;;;15.40;13.80;;;15.80;99.90;;;;;;5051645;28;20462;-71
2023/05/21 00:13:12;;;;;;;14.70;13.20;;;15.80;99.90;;;;;;5051652;28;20179;-71
2023/05/21 00:15:38;;;;;;;15.47;14.07;;;15.80;99.90;;;;;;5050965;28;20193;-71
2023/05/21 00:18:04;;;;;;;14.77;13.37;;;15.80;99.90;;;;;;5052576;28;20434;-71
2023/05/21 00:20:31;;;;;;;14.97;13.40;;;15.80;99.90;;;;;;5029909;28;20209;-72
2023/05/21 00:23:03;;;;;;;16.90;14.53;;;15.70;99.90;;;;;;5052386;28;20432;-72
2023/05/21 00:25:29;;;;;;;14.60;13.20;;;15.70;99.90;;;;;;5048324;28;20521;-72
2023/05/21 00:27:55;;;;;;;15.93;14.33;;;15.70;99.90;;;;;;5048908;28;20445;-71
2023/05/21 00:30:21;;;;;;;14.77;13.47;;;15.70;99.90;;;;;;5051345;28;20458;-71
2023/05/21 00:32:47;;;;;;;13.87;12.57;;;15.70;99.90;;;;;;5052142;28;20855;-71
2023/05/21 00:35:13;;;;;;;13.80;12.53;;;15.70;99.90;;;;;;5052536;28;20473;-72
2023/05/21 00:37:39;;;;;;;14.80;13.30;;;15.70;99.90;;;;;;5050530;28;20266;-72
2023/05/21 00:40:10;;;;;;;15.23;13.73;;;15.60;99.90;;;;;;5052033;28;20824;-72
2023/05/21 00:42:40;;;;;;;15.40;14.00;;;15.60;99.90;;;;;;5052222;28;20438;-71
2023/05/21 00:45:06;;;;;;;14.50;13.20;;;15.60;99.90;;;;;;5053196;28;20416;-70
2023/05/21 00:47:33;;;;;;;14.37;13.00;;;15.60;99.90;;;;;;5034378;28;20457;-69
2023/05/21 00:50:00;;;;;;;14.73;13.33;;;15.60;99.90;;;;;;5030588;28;20788;-69
2023/05/21 00:52:26;;;;;;;14.80;13.40;;;15.50;99.90;;;;;;5051080;28;20566;-70
2023/05/21 00:54:52;;;;;;;14.43;13.23;;;15.50;99.90;;;;;;5051217;28;20514;-69
2023/05/21 00:57:22;;;;;;;15.20;13.60;;;15.50;99.90;;;;;;5050939;28;20775;-70
2023/05/21 00:59:50;;;;;;;14.40;13.10;;;15.50;99.90;;;;;;5052839;28;20407;-69
2023/05/21 01:02:19;;;;;;;16.03;14.50;;;15.40;99.90;;;;;;5050574;28;20493;-70
2023/05/21 01:04:45;;;;;;;14.40;13.00;;;15.40;99.90;;;;;;5051351;28;20538;-70
2023/05/21 01:07:11;;;;;;;16.37;14.87;;;15.40;99.90;;;;;;5050795;28;20534;-69
2023/05/21 01:09:38;;;;;;;14.70;13.30;;;15.40;99.90;;;;;;5033045;28;20821;-70
2023/05/21 01:12:05;;;;;;;15.40;13.90;;;15.40;99.90;;;;;;5050942;28;20435;-70
2023/05/21 01:14:31;;;;;;;18.33;14.37;;;15.40;99.90;;;;;;5050229;28;20423;-69
2023/05/21 01:17:00;;;;;;;15.73;14.27;;;15.30;99.90;;;;;;5051387;28;20428;-70
2023/05/21 01:19:27;;;;;;;15.37;13.87;;;15.30;99.90;;;;;;5046371;28;20431;-69
2023/05/21 01:22:00;;;;;;;15.37;13.97;;;15.30;99.90;;;;;;5049789;28;20467;-70
2023/05/21 01:24:26;;;;;;;15.47;14.07;;;15.30;99.90;;;;;;5044339;28;20466;-70
2023/05/21 01:26:51;;;;;;;16.17;14.50;;;15.20;99.90;;;;;;5030738;28;20431;-70
2023/05/21 01:29:18;;;;;;;15.53;13.93;;;15.20;99.90;;;;;;5050780;28;20181;-70
2023/05/21 01:32:13;;;;;;;15.90;14.27;;;15.20;99.90;;;;;;5050152;28;20214;-70
2023/05/21 01:34:40;;;;;;;15.67;14.30;;;15.20;99.90;;;;;;5039862;28;20427;-69
2023/05/21 01:37:43;;;;;;;15.50;14.00;;;15.10;99.90;;;;;;5051638;28;20502;-69
2023/05/21 01:40:16;;;;;;;15.73;14.13;;;15.20;99.90;;;;;;5031811;28;20935;-70
2023/05/21 01:42:44;;;;;;;16.43;14.93;;;15.10;99.90;;;;;;5051394;28;20559;-70
2023/05/21 01:45:12;;;;;;;15.23;13.70;;;15.10;99.90;;;;;;5050154;28;20430;-69
2023/05/21 01:47:39;;;;;;;15.23;13.87;;;15.10;99.90;;;;;;5051174;28;20415;-70
2023/05/21 01:50:06;;;;;;;15.10;13.50;;;15.10;99.90;;;;;;5051165;28;20437;-69
2023/05/21 01:52:31;;;;;;;15.00;13.60;;;15.10;99.90;;;;;;5050338;28;20471;-69
2023/05/21 01:54:58;;;;;;;14.77;13.37;;;15.10;99.90;;;;;;5050220;28;20445;-69
2023/05/21 01:57:24;;;;;;;14.60;13.17;;;15.00;99.90;;;;;;5030871;28;20186;-69
2023/05/21 01:59:55;;;;;;;15.07;13.67;;;15.00;99.90;;;;;;5039716;28;20427;-69
2023/05/21 02:02:20;;;;;;;15.63;14.23;;;15.00;99.90;;;;;;5049871;28;20493;-70
2023/05/21 02:04:46;;;;;;;14.80;13.47;;;15.00;99.90;;;;;;5050107;28;20455;-69
2023/05/21 02:07:13;;;;;;;15.13;13.67;;;15.00;99.90;;;;;;5043780;28;20257;-69
2023/05/21 02:09:39;;;;;;;17.53;15.93;;;14.90;99.90;;;;;;5049635;28;20172;-69
2023/05/21 02:12:06;;;;;;;15.43;13.97;;;14.90;99.90;;;;;;5050575;28;20456;-69
2023/05/21 02:14:35;;;;;;;15.17;13.77;;;14.90;99.90;;;;;;5028846;28;20430;-69
2023/05/21 02:17:00;;;;;;;16.03;14.57;;;14.90;99.90;;;;;;5050486;28;20562;-69
2023/05/21 02:19:26;;;;;;;15.10;13.60;;;14.90;99.90;;;;;;5049161;28;20430;-69
2023/05/21 02:21:52;;;;;;;15.00;13.57;;;14.90;99.90;;;;;;5050055;28;20214;-69
2023/05/21 02:24:18;;;;;;;17.03;14.20;;;14.90;99.90;;;;;;5033255;28;20472;-70
2023/05/21 02:26:43;;;;;;;14.97;13.53;;;15.00;99.90;;;;;;5015760;28;20194;-70
2023/05/21 02:29:09;;;;;;;14.13;12.83;;;15.00;99.90;;;;;;5046921;28;20221;-69
2023/05/21 02:31:35;;;;;;;14.80;13.30;;;15.00;99.90;;;;;;5049017;28;20196;-69
2023/05/21 02:34:01;;;;;;;14.90;13.57;;;15.00;99.90;;;;;;5049942;28;20189;-69
2023/05/21 02:36:27;;;;;;;14.63;13.30;;;14.90;99.90;;;;;;5049416;28;20940;-70
2023/05/21 02:38:53;;;;;;;14.23;13.00;;;14.90;99.90;;;;;;5050838;28;20178;-70
2023/05/21 02:41:20;;;;;;;14.43;13.13;;;14.90;99.90;;;;;;5050574;28;20477;-69
2023/05/21 02:43:46;;;;;;;14.50;13.00;;;14.90;99.90;;;;;;5027823;28;21045;-70
2023/05/21 02:46:11;;;;;;;13.77;12.57;;;14.90;99.90;;;;;;5037514;28;20410;-69
2023/05/21 02:48:37;;;;;;;13.70;12.50;;;14.90;99.90;;;;;;5046876;28;20537;-70
2023/05/21 02:51:03;;;;;;;14.10;12.90;;;14.90;99.90;;;;;;5054115;28;20192;-69
2023/05/21 02:53:29;;;;;;;14.93;13.53;;;14.90;99.90;;;;;;5051948;28;20199;-69
2023/05/21 02:55:55;;;;;;;14.80;13.40;;;14.90;99.90;;;;;;5041028;28;20179;-69
2023/05/21 02:58:23;;;;;;;13.70;12.53;;;14.90;99.90;;;;;;5029513;28;20536;-69
2023/05/21 03:00:52;;;;;;;14.27;12.97;;;14.90;99.90;;;;;;5041083;28;20512;-70
2023/05/21 03:03:18;;;;;;;15.73;14.33;;;14.90;99.90;;;;;;5054230;28;20436;-69
2023/05/21 03:05:44;;;;;;;15.27;13.90;;;14.80;99.90;;;;;;5052833;28;20764;-69
2023/05/21 03:08:10;;;;;;;13.97;12.77;;;14.80;99.90;;;;;;5053862;28;20577;-69
2023/05/21 03:10:36;;;;;;;13.13;12.03;;;14.80;99.90;;;;;;5052860;28;20444;-69
2023/05/21 03:13:03;;;;;;;13.80;12.50;;;14.80;99.90;;;;;;5054152;28;20194;-69
2023/05/21 03:15:32;;;;;;;13.70;12.47;;;14.80;99.90;;;;;;5053142;28;20180;-69
2023/05/21 03:17:58;;;;;;;14.50;13.17;;;14.80;99.90;;;;;;5053618;28;20438;-70
2023/05/21 03:20:24;;;;;;;13.53;12.43;;;14.80;99.90;;;;;;5053902;28;20523;-69
2023/05/21 03:22:53;;;;;;;14.00;12.70;;;14.80;99.90;;;;;;5031871;28;20515;-69
2023/05/21 03:25:20;;;;;;;13.43;12.23;;;14.80;99.90;;;;;;5053425;28;20196;-69
2023/05/21 03:27:46;;;;;;;14.43;13.20;;;14.80;99.90;;;;;;5048866;28;20435;-69
2023/05/21 03:30:12;;;;;;;14.63;13.43;;;14.70;99.90;;;;;;5051174;28;20933;-70
2023/05/21 03:32:40;;;;;;;12.93;11.83;;;14.70;99.90;;;;;;5052758;28;20461;-69
2023/05/21 03:35:06;;;;;;;14.80;13.50;;;14.70;99.90;;;;;;5032912;28;20190;-69
2023/05/21 03:37:31;;;;;;;17.10;13.47;;;14.70;99.90;;;;;;5051819;28;20435;-70
2023/05/21 03:39:57;;;;;;;13.77;12.57;;;14.70;99.90;;;;;;5052493;28;20425;-70
2023/05/21 03:42:23;;;;;;;13.47;12.37;;;14.70;99.90;;;;;;5053477;28;20242;-70
2023/05/21 03:44:49;;;;;;;15.00;13.73;;;14.70;99.90;;;;;;5052792;28;20242;-70
2023/05/21 03:47:14;;;;;;;14.43;13.17;;;14.70;99.90;;;;;;5034065;28;20196;-70
2023/05/21 03:49:40;;;;;;;13.07;11.97;;;14.70;99.90;;;;;;5052026;28;20174;-70
2023/05/21 03:52:06;;;;;;;14.23;13.03;;;14.70;99.90;;;;;;5052493;28;20246;-70
2023/05/21 03:54:31;;;;;;;13.27;12.10;;;14.70;99.90;;;;;;5051001;28;20265;-70
2023/05/21 03:56:57;;;;;;;13.50;12.30;;;14.70;99.90;;;;;;5051604;28;20239;-70
2023/05/21 03:59:23;;;;;;;15.20;13.90;;;14.70;99.90;;;;;;5051202;28;20179;-70
2023/05/21 04:01:49;;;;;;;14.53;12.93;;;14.70;99.90;;;;;;5052118;28;20237;-70
2023/05/21 04:04:14;;;;;;;15.80;14.40;;;14.70;99.90;;;;;;5051839;28;20182;-71
2023/05/21 04:06:43;;;;;;;15.53;14.13;;;14.70;99.90;;;;;;5052097;28;20511;-70
2023/05/21 04:09:09;;;;;;;15.60;14.10;;;14.70;99.90;;;;;;5053211;28;20599;-70
2023/05/21 04:11:35;;;;;;;16.77;15.27;;;14.70;99.90;;;;;;5051600;28;20478;-70
2023/05/21 04:14:01;;;;;;;14.73;13.43;;;14.70;99.90;;;;;;5052987;28;20190;-71
2023/05/21 04:16:27;;;;;;;14.10;12.93;;;14.70;99.90;;;;;;5051836;28;20438;-70
2023/05/21 04:18:55;;;;;;;15.07;13.77;;;14.70;99.90;;;;;;5051157;28;20418;-70
2023/05/21 04:21:21;;;;;;;14.37;13.17;;;14.80;99.90;;;;;;5052207;28;20225;-70
2023/05/21 04:23:46;;;;;;;15.17;13.80;;;14.80;99.90;;;;;;5051297;28;20919;-70
2023/05/21 04:26:12;;;;;;;14.50;13.20;;;14.80;99.90;;;;;;5039448;28;20193;-70
2023/05/21 04:28:40;;;;;;;14.47;13.17;;;14.80;99.90;;;;;;5043912;28;20307;-70
2023/05/21 04:31:07;;;;;;;16.23;14.80;;;14.80;99.90;;;;;;5052707;28;20204;-71
2023/05/21 04:33:34;;;;;;;15.47;13.97;;;14.90;99.90;;;;;;5050832;28;20440;-70
2023/05/21 04:36:00;;;;;;;15.40;14.10;;;14.90;99.90;;;;;;5052591;28;20517;-70
2023/05/21 04:38:26;;;;;;;16.13;14.43;;;14.90;99.90;;;;;;5052148;28;20860;-71
2023/05/21 04:40:52;;;;;;;15.97;14.53;;;14.90;99.90;;;;;;5051197;28;20458;-70
2023/05/21 04:43:25;;;;;;;16.80;15.20;;;14.90;99.90;;;;;;5052194;28;20462;-70
2023/05/21 04:45:54;;;;;;;14.70;13.30;;;14.90;99.90;;;;;;5049428;28;20289;-70
2023/05/21 04:48:23;;;;;;;16.47;14.93;;;14.90;99.90;;;;;;5051259;28;20426;-71
2023/05/21 04:50:49;;;;;;;15.80;14.40;;;15.00;99.90;;;;;;5050901;28;20437;-70
2023/05/21 04:53:16;;;;;;;15.70;14.40;;;15.00;99.90;;;;;;5051511;28;20473;-70
2023/05/21 04:55:42;;;;;;;16.40;15.00;;;15.00;99.90;;;;;;5051191;28;20823;-70
2023/05/21 04:58:11;;;;;;;16.67;14.70;;;15.00;99.90;;;;;;5050175;28;20418;-70
2023/05/21 05:00:40;;;;;;;15.40;14.10;;;15.00;99.90;;;;;;5049778;28;20517;-70
2023/05/21 05:03:06;;;;;;;15.63;14.23;;;15.00;99.90;;;;;;5049119;28;21016;-70
2023/05/21 05:05:32;;;;;;;15.83;14.37;;;15.00;99.90;;;;;;5042209;28;20509;-70
2023/05/21 05:07:59;;;;;;;15.70;14.30;;;15.00;99.90;;;;;;5050711;28;20433;-70
2023/05/21 05:10:25;;;;;;;15.40;14.10;;;15.00;99.90;;;;;;5050997;28;20182;-72
2023/05/21 05:12:50;;;;;;;15.57;14.17;;;15.00;99.90;;;;;;5049644;28;20419;-72
2023/05/21 05:15:16;;;;;;;17.10;15.50;;;15.00;99.90;;;;;;5043305;28;20636;-73
2023/05/21 05:17:42;;;;;;;18.67;17.03;;;15.10;99.90;;;;;;5051613;28;20211;-73
2023/05/21 05:20:08;;;;;;;15.20;13.90;;;15.10;99.90;;;;;;5033542;28;20669;-73
2023/05/21 05:22:34;;;;;;;16.73;15.20;;;15.10;99.90;;;;;;5052084;28;20211;-73
2023/05/21 05:25:00;;;;;;;18.03;16.27;;;15.20;99.90;;;;;;5047256;28;20904;-73
2023/05/21 05:27:26;;;;;;;14.57;13.37;;;15.20;99.90;;;;;;5050253;28;20627;-73
2023/05/21 05:29:51;;;;;;;15.20;13.80;;;15.30;99.90;;;;;;5049448;28;20181;-73
2023/05/21 05:32:17;;;;;;;16.60;15.20;;;15.40;99.90;;;;;;5052654;28;20553;-73
2023/05/21 05:34:45;;;;;;;15.40;14.10;;;15.40;99.90;;;;;;5050986;28;20248;-74
2023/05/21 05:37:11;;;;;;;16.67;15.27;;;15.50;99.90;;;;;;5047170;28;20188;-74
2023/05/21 05:39:37;;;;;;;15.90;14.50;;;15.70;99.90;;;;;;5041652;28;20439;-74
2023/05/21 05:42:04;;;;;;;16.17;14.77;;;15.90;99.90;;;;;;5034855;28;20237;-75
2023/05/21 05:44:30;;;;;;;14.20;13.10;;;16.20;99.90;;;;;;5017782;28;20514;-74
2023/05/21 05:46:56;;;;;;;14.77;13.57;;;16.50;99.90;;;;;;5034719;28;20384;-75
2023/05/21 05:49:22;;;;;;;14.27;13.00;;;16.70;99.90;;;;;;5031093;28;20265;-75
2023/05/21 05:51:47;;;;;;;15.03;13.80;;;16.90;99.90;;;;;;5032283;28;20224;-74
2023/05/21 05:54:13;;;;;;;13.50;12.40;;;17.10;99.90;;;;;;5045791;28;20178;-74
2023/05/21 05:56:41;;;;;;;13.20;12.20;;;17.30;99.90;;;;;;5031112;28;20205;-75
2023/05/21 05:59:07;;;;;;;14.27;12.97;;;17.40;99.90;;;;;;5034041;28;20257;-75
2023/05/21 06:01:34;;;;;;;15.23;13.53;;;17.50;99.90;;;;;;5031051;28;20896;-75
2023/05/21 06:04:00;;;;;;;14.00;12.90;;;17.70;99.90;;;;;;5033100;28;20210;-75
2023/05/21 06:06:26;;;;;;;21.70;19.50;;;17.80;99.90;;;;;;5036844;28;20491;-74
2023/05/21 06:08:51;;;;;;;20.17;18.27;;;17.90;99.90;;;;;;5036711;28;20205;-75
2023/05/21 06:11:17;;;;;;;15.17;13.77;;;18.00;99.90;;;;;;5031783;28;20677;-75
2023/05/21 06:13:44;;;;;;;14.80;13.70;;;18.00;99.90;;;;;;5039243;28;20193;-74
2023/05/21 06:16:10;;;;;;;15.17;13.97;;;18.10;99.90;;;;;;5031876;28;20405;-74
2023/05/21 06:18:36;;;;;;;15.03;13.53;;;18.10;99.90;;;;;;5031253;28;20801;-75
2023/05/21 06:21:02;;;;;;;13.70;12.50;;;18.20;99.90;;;;;;5025348;28;20216;-75
2023/05/21 06:23:31;;;;;;;14.17;12.87;;;18.30;99.90;;;;;;5055314;28;20412;-75
2023/05/21 06:25:56;;;;;;;15.20;13.90;;;18.30;99.90;;;;;;5043207;28;20177;-75
2023/05/21 06:28:22;;;;;;;15.33;13.80;;;18.20;99.90;;;;;;5043343;28;20428;-75
2023/05/21 06:30:48;;;;;;;14.97;13.73;;;18.20;99.90;;;;;;5040551;28;20216;-75
2023/05/21 06:33:15;;;;;;;14.70;13.30;;;18.30;99.90;;;;;;5053402;28;20186;-75
2023/05/21 06:35:41;;;;;;;15.20;14.00;;;18.30;99.90;;;;;;5034958;28;20401;-75
2023/05/21 06:38:06;;;;;;;15.23;13.83;;;18.30;99.90;;;;;;5035303;28;20616;-75
2023/05/21 06:40:33;;;;;;;15.00;13.70;;;18.30;99.90;;;;;;5034818;28;20175;-75
2023/05/21 06:42:59;;;;;;;16.37;14.57;;;18.20;99.90;;;;;;5034351;28;20367;-75
2023/05/21 06:45:25;;;;;;;15.97;14.77;;;18.20;99.90;;;;;;5035562;28;20904;-75
2023/05/21 06:47:50;;;;;;;22.27;20.10;;;18.10;99.90;;;;;;5043990;28;20233;-74
2023/05/21 06:50:16;;;;;;;17.70;16.20;;;18.00;99.90;;;;;;5054337;28;20182;-74
2023/05/21 06:52:42;;;;;;;16.10;14.80;;;18.00;99.90;;;;;;5053205;28;20221;-74
2023/05/21 06:55:11;;;;;;;14.87;13.40;;;18.00;99.90;;;;;;5046390;28;20577;-74
2023/05/21 06:57:37;;;;;;;14.83;13.60;;;18.10;99.90;;;;;;5049264;28;20435;-74
2023/05/21 07:00:04;;;;;;;15.13;13.83;;;18.00;99.90;;;;;;5054413;28;20416;-74
2023/05/21 07:02:30;;;;;;;18.00;16.30;;;18.10;99.90;;;;;;5033712;28;20447;-74
2023/05/21 07:04:56;;;;;;;17.33;15.83;;;18.20;99.90;;;;;;5051757;28;20405;-74
2023/05/21 07:07:22;;;;;;;15.70;14.30;;;18.20;99.90;;;;;;5049573;28;20239;-76
2023/05/21 07:09:47;;;;;;;16.30;15.00;;;18.20;99.90;;;;;;5052090;28;20201;-74
2023/05/21 07:12:13;;;;;;;15.67;14.37;;;18.30;99.90;;;;;;5050516;28;20262;-75
2023/05/21 07:14:39;;;;;;;15.23;13.93;;;18.10;99.90;;;;;;5043756;28;20261;-74
2023/05/21 07:17:04;;;;;;;19.10;15.30;;;18.20;99.90;;;;;;5045338;28;20612;-77
2023/05/21 07:19:31;;;;;;;22.27;19.87;;;18.30;99.90;;;;;;5046426;28;20182;-75
2023/05/21 07:21:56;;;;;;;23.70;21.27;;;18.30;99.90;;;;;;5042154;28;20203;-75
2023/05/21 07:24:22;;;;;;;21.83;19.83;;;18.40;99.90;;;;;;5028497;28;20939;-75
2023/05/21 07:26:51;;;;;;;20.63;18.63;;;18.40;99.90;;;;;;5041935;28;20179;-75
2023/05/21 07:29:16;;;;;;;21.07;18.97;;;18.50;99.90;;;;;;5043924;28;20459;-75
2023/05/21 07:31:42;;;;;;;18.97;17.23;;;18.50;99.90;;;;;;5042994;28;20634;-75
2023/05/21 07:34:08;;;;;;;21.87;19.73;;;18.30;99.90;;;;;;5043632;28;20622;-74
2023/05/21 07:36:33;;;;;;;18.93;17.23;;;18.30;99.90;;;;;;5044525;28;20181;-75
2023/05/21 07:38:59;;;;;;;18.17;16.47;;;18.30;99.90;;;;;;5042337;28;20215;-75
2023/05/21 07:41:25;;;;;;;17.00;15.40;;;18.10;99.90;;;;;;5043406;28;20197;-75
2023/05/21 07:43:51;;;;;;;19.10;17.40;;;18.10;99.90;;;;;;5044481;28;20424;-74
2023/05/21 07:46:16;;;;;;;17.70;16.10;;;18.00;99.90;;;;;;5043210;28;20171;-74
2023/05/21 07:48:42;;;;;;;17.53;15.97;;;18.10;99.90;;;;;;5025934;28;20165;-74
2023/05/21 07:51:09;;;;;;;17.27;15.87;;;18.20;99.90;;;;;;5044530;28;20225;-75
2023/05/21 07:53:35;;;;;;;17.97;16.37;;;18.30;99.90;;;;;;5024712;28;20432;-75
2023/05/21 07:56:00;;;;;;;17.67;16.17;;;18.30;99.90;;;;;;5045999;28;20534;-75
2023/05/21 07:58:26;;;;;;;19.43;17.73;;;18.40;99.90;;;;;;5036508;28;20236;-75
2023/05/21 08:00:52;;;;;;;17.10;15.80;;;18.40;99.90;;;;;;5053641;28;20194;-75
2023/05/21 08:03:18;;;;;;;18.80;17.20;;;18.40;99.90;;;;;;5054405;28;20174;-74
2023/05/21 08:05:47;;;;;;;138.67;104.37;;;18.20;99.90;;;;;;5054423;28;20432;-74
2023/05/21 08:08:19;;;;;;;116.87;93.07;;;18.20;99.90;;;;;;5054856;28;20576;-74
2023/05/21 08:10:45;;;;;;;22.87;20.67;;;18.30;99.90;;;;;;5052828;28;20416;-75
2023/05/21 08:13:12;;;;;;;22.77;20.50;;;18.30;99.90;;;;;;5035383;28;20471;-75
2023/05/21 08:15:37;;;;;;;18.83;17.13;;;18.40;99.90;;;;;;5045532;28;20801;-75
2023/05/21 08:18:04;;;;;;;23.83;21.03;;;18.50;99.90;;;;;;5053292;28;20404;-75
2023/05/21 08:20:32;;;;;;;19.43;17.30;;;18.30;99.90;;;;;;5035903;28;20174;-75
2023/05/21 08:23:00;;;;;;;22.73;20.53;;;18.30;99.90;;;;;;5050933;28;20418;-75
2023/05/21 08:25:26;;;;;;;21.70;19.80;;;18.30;99.90;;;;;;5050274;28;20420;-75
2023/05/21 08:27:53;;;;;;;18.10;16.37;;;18.30;99.90;;;;;;5047825;28;20715;-72
2023/05/21 08:30:18;;;;;;;18.63;16.77;;;18.20;99.90;;;;;;5052057;28;20452;-72
2023/05/21 08:32:45;;;;;;;18.27;16.77;;;18.00;99.90;;;;;;5052579;28;20899;-72
2023/05/21 08:35:11;;;;;;;18.67;16.90;;;18.00;99.90;;;;;;5047625;28;21213;-73
2023/05/21 08:37:37;;;;;;;17.80;16.20;;;18.00;99.90;;;;;;5053327;28;20497;-72
2023/05/21 08:40:04;;;;;;;18.50;16.90;;;17.80;99.90;;;;;;5052874;28;20173;-72
2023/05/21 08:42:41;;;;;;;18.87;17.17;;;17.70;99.90;;;;;;5047298;28;20748;-73
2023/05/21 08:45:10;;;;;;;19.60;17.70;;;17.80;99.90;;;;;;5048459;28;20425;-72
2023/05/21 08:47:36;;;;;;;18.27;16.70;;;18.00;99.90;;;;;;5033477;28;20447;-72
2023/05/21 08:50:06;;;;;;;19.57;17.87;;;18.10;99.90;;;;;;5032582;28;20480;-72
2023/05/21 08:52:32;;;;;;;18.20;16.50;;;18.10;99.90;;;;;;5042555;28;20476;-73
2023/05/21 08:54:58;;;;;;;18.20;16.50;;;18.10;99.90;;;;;;5052670;28;20782;-73
2023/05/21 08:57:26;;;;;;;17.17;15.40;;;18.00;99.90;;;;;;5052902;28;20180;-73
2023/05/21 08:59:51;;;;;;;158.43;108.27;;;18.10;99.90;;;;;;5050588;28;20531;-73
2023/05/21 09:02:19;;;;;;;61.63;51.73;;;18.20;99.90;;;;;;5048688;28;20602;-73
2023/05/21 09:04:48;;;;;;;18.70;17.07;;;18.30;99.90;;;;;;5049853;28;20455;-72
2023/05/21 09:07:15;;;;;;;19.63;17.73;;;18.20;99.90;;;;;;5052602;28;20491;-73
2023/05/21 09:09:48;;;;;;;18.33;16.63;;;18.20;99.90;;;;;;5050989;28;20440;-72
2023/05/21 09:12:14;;;;;;;19.13;17.33;;;18.30;99.90;;;;;;5046540;28;20454;-73
2023/05/21 09:14:41;;;;;;;18.73;16.83;;;18.30;99.90;;;;;;5026218;28;20511;-73
2023/05/21 09:17:07;;;;;;;19.20;17.27;;;18.40;99.90;;;;;;5027377;28;20673;-72
2023/05/21 09:19:33;;;;;;;19.90;17.87;;;18.50;99.90;;;;;;5033665;28;20500;-73
2023/05/21 09:22:02;;;;;;;18.57;16.87;;;18.60;99.90;;;;;;5023345;28;20201;-72
2023/05/21 09:24:31;;;;;;;70.03;59.37;;;18.60;99.90;;;;;;5048945;28;20448;-72
2023/05/21 09:26:58;;;;;;;133.30;102.27;;;18.50;99.90;;;;;;5032218;28;20433;-72
2023/05/21 09:29:25;;;;;;;23.47;21.23;;;18.50;99.90;;;;;;5028211;28;20446;-74
2023/05/21 09:31:51;;;;;;;21.00;19.20;;;18.60;99.90;;;;;;5052127;28;20554;-72
2023/05/21 09:34:16;;;;;;;19.70;17.80;;;18.70;99.90;;;;;;5032650;28;20461;-72
2023/05/21 09:36:42;;;;;;;20.10;18.20;;;18.80;99.90;;;;;;5052494;28;20177;-71
2023/05/21 09:39:10;;;;;;;19.40;17.70;;;18.80;99.90;;;;;;5043600;28;20500;-71
2023/05/21 09:41:36;;;;;;;19.70;17.80;;;18.90;99.90;;;;;;5049558;28;20209;-71
2023/05/21 09:44:03;;;;;;;18.20;16.50;;;19.00;99.90;;;;;;5034200;28;20725;-72
2023/05/21 09:46:39;;;;;;;20.63;18.53;;;19.20;99.90;;;;;;5048650;28;20423;-72
2023/05/21 09:49:05;;;;;;;20.03;18.00;;;19.40;99.90;;;;;;5048247;28;20804;-72
2023/05/21 09:51:30;;;;;;;17.53;15.93;;;19.40;99.90;;;;;;5045955;28;20560;-73
2023/05/21 09:53:57;;;;;;;19.13;17.40;;;19.50;99.90;;;;;;5033595;28;20588;-73
2023/05/21 09:56:25;;;;;;;19.00;17.23;;;19.60;99.90;;;;;;5041672;28;20182;-72
2023/05/21 09:58:55;;;;;;;18.40;16.80;;;19.70;99.90;;;;;;5054296;28;20781;-72
2023/05/21 10:01:23;;;;;;;18.57;16.87;;;19.80;99.90;;;;;;5044843;28;20492;-72
2023/05/21 10:03:54;;;;;;;18.93;17.23;;;19.80;99.90;;;;;;5055957;28;20498;-72
2023/05/21 10:06:22;;;;;;;19.90;18.10;;;19.70;99.90;;;;;;5054571;28;20424;-72
2023/05/21 10:08:52;;;;;;;18.50;16.80;;;19.50;99.90;;;;;;5055743;28;20799;-71
2023/05/21 10:11:21;;;;;;;20.00;18.20;;;19.40;99.90;;;;;;5040117;28;20419;-72
2023/05/21 10:13:52;;;;;;;20.43;18.43;;;19.40;99.90;;;;;;5054137;28;20420;-75
2023/05/21 10:16:18;;;;;;;21.37;19.37;;;19.40;99.90;;;;;;5042954;28;20453;-72
2023/05/21 10:18:45;;;;;;;18.73;17.07;;;19.40;99.90;;;;;;5053551;28;20420;-72
2023/05/21 10:21:12;;;;;;;21.20;19.10;;;19.40;99.90;;;;;;5050650;28;20554;-72
2023/05/21 10:23:38;;;;;;;21.53;19.53;;;19.20;99.90;;;;;;5052197;28;20835;-72
2023/05/21 10:26:05;;;;;;;20.40;18.30;;;19.00;99.90;;;;;;5033344;28;20428;-72
2023/05/21 10:28:32;;;;;;;19.57;17.67;;;19.10;99.90;;;;;;5049210;28;20432;-72
2023/05/21 10:30:58;;;;;;;364.00;273.30;;;19.20;99.90;;;;;;5045267;28;20807;-72
2023/05/21 10:33:25;;;;;;;155.90;122.20;;;19.30;99.90;;;;;;5050929;28;20436;-73
2023/05/21 10:35:53;;;;;;;21.97;19.97;;;19.50;99.90;;;;;;5033620;28;20424;-73
2023/05/21 10:38:19;;;;;;;20.43;18.50;;;19.40;99.90;;;;;;5052462;28;20471;-72
2023/05/21 10:40:48;;;;;;;19.77;17.90;;;19.40;99.90;;;;;;5049630;28;20803;-72
2023/05/21 10:43:45;;;;;;;20.20;18.30;;;19.40;99.90;;;;;;5052388;28;20415;-72
2023/05/21 10:46:43;;;;;;;20.20;18.20;;;19.50;99.90;;;;;;5051247;28;20400;-71
2023/05/21 10:49:33;;;;;;;20.70;18.70;;;19.70;99.90;;;;;;5051419;28;20408;-71
2023/05/21 10:52:11;;;;;;;20.43;18.43;;;19.80;99.90;;;;;;5051312;28;20470;-71
2023/05/21 10:54:48;;;;;;;19.63;17.83;;;19.80;99.90;;;;;;5051812;28;20412;-71
2023/05/21 10:57:45;;;;;;;19.13;17.33;;;19.80;99.90;;;;;;5050385;28;20428;-72
2023/05/21 11:00:14;;;;;;;21.20;19.00;;;19.90;99.90;;;;;;5033286;28;20841;-71
2023/05/21 11:02:40;;;;;;;25.10;19.93;;;20.00;99.90;;;;;;5051746;28;20491;-71
2023/05/21 11:05:06;;;;;;;19.00;17.20;;;19.80;99.90;;;;;;5047504;28;20427;-72
2023/05/21 11:07:57;;;;;;;21.93;19.83;;;19.80;99.90;;;;;;5050628;28;20424;-71
2023/05/21 11:10:30;;;;;;;20.33;18.23;;;20.00;99.90;;;;;;5050722;28;20432;-71
2023/05/21 11:13:12;;;;;;;21.87;19.87;;;20.10;99.90;;;;;;5050661;28;20420;-71
2023/05/21 11:16:12;;;;;;;20.70;18.60;;;20.10;99.90;;;;;;5049272;28;20523;-71
2023/05/21 11:18:38;;;;;;;21.37;19.27;;;20.10;99.90;;;;;;5032029;28;20462;-72
2023/05/21 11:21:09;;;;;;;21.77;19.67;;;20.20;99.90;;;;;;5044224;28;20467;-72
2023/05/21 11:23:50;;;;;;;20.40;18.40;;;20.30;99.90;;;;;;5051391;28;20231;-72
2023/05/21 11:26:16;;;;;;;141.40;91.90;;;20.30;99.90;;;;;;5050156;28;20435;-73
2023/05/21 11:28:45;;;;;;;69.07;57.70;;;20.30;99.90;;;;;;5033797;28;20487;-71
2023/05/21 11:31:28;;;;;;;22.17;20.03;;;20.40;99.90;;;;;;5050435;28;20895;-74
2023/05/21 11:34:13;;;;;;;20.13;18.23;;;20.40;99.90;;;;;;5054256;28;20496;-70
2023/05/21 11:36:44;;;;;;;20.20;18.20;;;20.30;99.90;;;;;;5032129;28;20417;-68
2023/05/21 11:39:20;;;;;;;20.13;18.10;;;20.40;99.90;;;;;;5046224;28;20416;-70
2023/05/21 11:42:01;;;;;;;20.97;19.03;;;20.40;99.90;;;;;;5053999;28;20443;-71
2023/05/21 11:44:41;;;;;;;21.10;19.20;;;20.50;99.90;;;;;;5054513;28;20400;-74
2023/05/21 11:47:09;;;;;;;21.60;19.70;;;20.50;99.90;;;;;;5053997;28;20384;-71
2023/05/21 11:49:35;;;;;;;21.10;19.10;;;20.50;99.90;;;;;;5054193;28;20416;-71
2023/05/21 11:52:06;;;;;;;21.03;19.23;;;20.50;99.90;;;;;;5054227;28;20486;-75
2023/05/21 11:54:35;;;;;;;21.63;19.43;;;20.50;99.90;;;;;;5054447;28;20777;-71
2023/05/21 11:57:06;;;;;;;21.67;19.47;;;20.60;99.90;;;;;;5053775;28;20409;-71
2023/05/21 11:59:33;;;;;;;22.27;20.07;;;20.80;99.90;;;;;;5036730;28;20393;-73
2023/05/21 12:01:59;;;;;;;21.20;19.20;;;20.70;99.90;;;;;;5053638;28;20460;-72
2023/05/21 12:04:31;;;;;;;22.17;20.27;;;20.80;99.90;;;;;;5054328;28;20481;-72
2023/05/21 12:06:57;;;;;;;21.30;18.50;;;20.90;99.90;;;;;;5053863;28;20512;-72
2023/05/21 12:09:24;;;;;;;21.07;19.17;;;21.00;99.90;;;;;;5035839;28;20432;-72
2023/05/21 12:11:53;;;;;;;20.90;19.00;;;21.10;99.90;;;;;;5036274;28;20515;-72
2023/05/21 12:14:20;;;;;;;21.33;19.33;;;21.10;99.90;;;;;;5053567;28;20919;-74
2023/05/21 12:16:47;;;;;;;21.57;18.80;;;21.20;99.90;;;;;;5053162;28;20415;-74
2023/05/21 12:19:16;;;;;;;20.10;18.17;;;21.20;99.90;;;;;;5053214;28;20401;-74
2023/05/21 12:21:42;;;;;;;22.00;20.00;;;21.20;99.90;;;;;;5053904;28;20645;-73
2023/05/21 12:24:08;;;;;;;21.97;20.00;;;21.20;99.90;;;;;;5053277;28;20526;-73
2023/05/21 12:26:34;;;;;;;20.93;18.93;;;21.10;99.90;;;;;;5036120;28;20185;-73
2023/05/21 12:29:01;;;;;;;20.63;18.73;;;21.00;99.90;;;;;;5035719;28;20525;-74